Aérodrome :
LOGIN :

S'inscrire | Disclaimer

   EN    FR    IT 

 










Légende :    VFR   VFR Marginal   IFR   IFR Intensif   IFR Très Intensif
Visi : 
Plafond : 
>= 8 km
>= 3000ft
5 à 8 km
1000 à 3000 ft
1500m à 5 km
500 à 1000 ft
800 à 1500m
200 à 500 ft
< 800m
< 200 ft
Symboles :   Orages  Brouillard  Fortes neiges  Fortes précipitations  Vent > 20 kt
SIGMETs :   Divers  Orages  Givrage  Turbulence  Onde Orograph.  Cendres Volcan.







- Altitude de l'aérodrome : 427 ft
- Code IATA : CIA


LIRA - Roma Ciampino

DERNIER METAR :
  • 162150Z VRB02KT CAVOK 19/17 Q1014

METARs EXPIRÉS :
  • 162120Z VRB02KT CAVOK 19/17 Q1014
  • 162050Z 19003KT CAVOK 19/17 Q1014
  • 162020Z 22003KT 190V260 CAVOK 20/16 Q1014
  • 161950Z 22003KT 170V260 CAVOK 21/16 Q1014
  • 161920Z 24003KT 200V270 CAVOK 22/15 Q1014

TAF TAF LIRA
Valide du 16 à 18h jusqu'au 17 à 18h UTC


161700Z 1618/1718 VRB05KT CAVOK
BECMG 1710/1712 23010KT
TEMPO 1713/1716 SHRA
Pas de NOTAMs connus pour ce terrain.



MET'MAP, la Météo Aéronautique d'un coup d'oeil ! - Copyright ORBIFLY Décembre 2007 - Disclaimer

ORBIFLY MET'MAP TEAM :

Programmation & Développement : Alexandra Zaïnal
Conception & Développement : Baudouin d'Aumeries
Co-Programmation & Développement : Marc-Olivier Méhu
Soutien technique & logistique : Manuel Goepfert

Contact : metmap@orbifly.com




SOURCES & CREDITS :

   NOAA